sensor_id;sensor_type;location;lat;lon;timestamp;pressure;altitude;pressure_sealevel;temperature;humidity
63395;BME280;49531;-34.520;150.798;2023-05-08T00:01:30;100503.69;;;16.29;37.69
63395;BME280;49531;-34.520;150.798;2023-05-08T00:03:58;100522.78;;;16.39;37.73
63395;BME280;49531;-34.520;150.798;2023-05-08T00:06:25;100513.72;;;16.45;37.53
63395;BME280;49531;-34.520;150.798;2023-05-08T00:08:54;100521.31;;;16.48;37.41
63395;BME280;49531;-34.520;150.798;2023-05-08T00:11:22;100498.13;;;16.47;37.59
63395;BME280;49531;-34.520;150.798;2023-05-08T00:13:49;100512.75;;;16.51;37.51
63395;BME280;49531;-34.520;150.798;2023-05-08T00:16:16;100512.41;;;16.48;37.61
63395;BME280;49531;-34.520;150.798;2023-05-08T00:18:43;100509.00;;;16.52;37.76
63395;BME280;49531;-34.520;150.798;2023-05-08T00:21:10;100503.75;;;16.46;37.78
63395;BME280;49531;-34.520;150.798;2023-05-08T00:23:38;100493.91;;;16.51;37.57
63395;BME280;49531;-34.520;150.798;2023-05-08T00:26:05;100496.38;;;16.41;37.70
63395;BME280;49531;-34.520;150.798;2023-05-08T00:28:32;100491.91;;;16.47;37.71
63395;BME280;49531;-34.520;150.798;2023-05-08T00:31:00;100518.16;;;16.51;37.56
63395;BME280;49531;-34.520;150.798;2023-05-08T00:33:28;100502.81;;;16.40;37.39
63395;BME280;49531;-34.520;150.798;2023-05-08T00:36:00;100517.00;;;16.47;37.39
63395;BME280;49531;-34.520;150.798;2023-05-08T00:38:30;100511.59;;;16.47;37.58
63395;BME280;49531;-34.520;150.798;2023-05-08T00:40:57;100514.88;;;16.49;36.71
63395;BME280;49531;-34.520;150.798;2023-05-08T00:43:24;100528.69;;;16.53;37.06
63395;BME280;49531;-34.520;150.798;2023-05-08T00:45:55;100532.22;;;16.53;37.35
63395;BME280;49531;-34.520;150.798;2023-05-08T00:48:24;100535.63;;;16.49;37.50
63395;BME280;49531;-34.520;150.798;2023-05-08T00:50:54;100524.84;;;16.49;37.30
63395;BME280;49531;-34.520;150.798;2023-05-08T00:53:22;100533.28;;;16.52;37.43
63395;BME280;49531;-34.520;150.798;2023-05-08T00:55:52;100528.13;;;16.51;37.13
63395;BME280;49531;-34.520;150.798;2023-05-08T00:58:20;100515.13;;;16.48;37.12
63395;BME280;49531;-34.520;150.798;2023-05-08T01:00:50;100533.50;;;16.51;37.33
63395;BME280;49531;-34.520;150.798;2023-05-08T01:03:22;100546.75;;;16.52;37.15
63395;BME280;49531;-34.520;150.798;2023-05-08T01:05:51;100522.84;;;16.44;37.20
63395;BME280;49531;-34.520;150.798;2023-05-08T01:08:19;100527.06;;;16.52;37.42
63395;BME280;49531;-34.520;150.798;2023-05-08T01:10:55;100541.38;;;16.64;37.03
63395;BME280;49531;-34.520;150.798;2023-05-08T01:13:48;100548.25;;;16.60;36.66
63395;BME280;49531;-34.520;150.798;2023-05-08T01:16:31;100554.47;;;16.60;37.03
63395;BME280;49531;-34.520;150.798;2023-05-08T01:25:25;100563.03;;;16.57;36.71
63395;BME280;49531;-34.520;150.798;2023-05-08T01:31:04;100564.09;;;16.56;36.66
63395;BME280;49531;-34.520;150.798;2023-05-08T01:33:46;100575.69;;;16.57;36.60
63395;BME280;49531;-34.520;150.798;2023-05-08T01:36:26;100573.81;;;16.57;36.84
63395;BME280;49531;-34.520;150.798;2023-05-08T01:44:29;100539.63;;;16.46;36.92
63395;BME280;49531;-34.520;150.798;2023-05-08T01:47:05;100532.09;;;16.60;36.68
63395;BME280;49531;-34.520;150.798;2023-05-08T01:49:41;100551.19;;;16.58;36.92
63395;BME280;49531;-34.520;150.798;2023-05-08T01:52:16;100561.19;;;16.70;36.30
63395;BME280;49531;-34.520;150.798;2023-05-08T01:55:06;100579.34;;;16.74;36.19
63395;BME280;49531;-34.520;150.798;2023-05-08T01:57:37;100574.19;;;16.73;36.33
63395;BME280;49531;-34.520;150.798;2023-05-08T02:00:07;100580.75;;;16.77;36.35
63395;BME280;49531;-34.520;150.798;2023-05-08T02:02:35;100558.00;;;16.73;36.31
63395;BME280;49531;-34.520;150.798;2023-05-08T02:05:04;100565.16;;;16.79;35.48
63395;BME280;49531;-34.520;150.798;2023-05-08T02:07:34;100573.72;;;16.76;35.17
63395;BME280;49531;-34.520;150.798;2023-05-08T02:10:04;100587.03;;;16.82;35.23
63395;BME280;49531;-34.520;150.798;2023-05-08T02:12:33;100586.84;;;16.72;34.97
63395;BME280;49531;-34.520;150.798;2023-05-08T02:15:03;100572.19;;;16.68;35.09
63395;BME280;49531;-34.520;150.798;2023-05-08T02:17:32;100597.50;;;16.79;34.90
63395;BME280;49531;-34.520;150.798;2023-05-08T02:20:03;100603.22;;;16.82;34.74
63395;BME280;49531;-34.520;150.798;2023-05-08T02:22:32;100583.44;;;16.77;34.41
63395;BME280;49531;-34.520;150.798;2023-05-08T02:25:01;100588.72;;;16.72;34.61
63395;BME280;49531;-34.520;150.798;2023-05-08T02:27:29;100599.63;;;16.77;34.89
63395;BME280;49531;-34.520;150.798;2023-05-08T02:29:58;100593.53;;;16.70;34.49
63395;BME280;49531;-34.520;150.798;2023-05-08T02:32:26;100600.34;;;16.72;34.71
63395;BME280;49531;-34.520;150.798;2023-05-08T02:34:54;100620.25;;;16.71;34.38
63395;BME280;49531;-34.520;150.798;2023-05-08T02:37:23;100614.63;;;16.73;34.74
63395;BME280;49531;-34.520;150.798;2023-05-08T02:39:53;100577.94;;;16.48;34.43
63395;BME280;49531;-34.520;150.798;2023-05-08T02:42:23;100589.78;;;16.71;34.24
63395;BME280;49531;-34.520;150.798;2023-05-08T02:44:50;100616.50;;;16.72;34.39
63395;BME280;49531;-34.520;150.798;2023-05-08T02:47:22;100599.41;;;16.66;33.89
63395;BME280;49531;-34.520;150.798;2023-05-08T02:49:56;100595.75;;;16.73;33.87
63395;BME280;49531;-34.520;150.798;2023-05-08T02:52:36;100601.63;;;16.70;33.72
63395;BME280;49531;-34.520;150.798;2023-05-08T02:55:15;100612.88;;;16.66;34.06
63395;BME280;49531;-34.520;150.798;2023-05-08T02:58:01;100613.72;;;16.67;34.18
63395;BME280;49531;-34.520;150.798;2023-05-08T03:00:36;100616.41;;;16.67;34.00
63395;BME280;49531;-34.520;150.798;2023-05-08T03:03:21;100629.28;;;16.77;33.49
63395;BME280;49531;-34.520;150.798;2023-05-08T03:05:54;100608.41;;;16.60;33.81
63395;BME280;49531;-34.520;150.798;2023-05-08T03:08:28;100618.50;;;16.65;34.28
63395;BME280;49531;-34.520;150.798;2023-05-08T03:11:00;100620.25;;;16.71;33.82
63395;BME280;49531;-34.520;150.798;2023-05-08T03:13:31;100599.03;;;16.51;34.20
63395;BME280;49531;-34.520;150.798;2023-05-08T03:16:03;100596.81;;;16.60;33.87
63395;BME280;49531;-34.520;150.798;2023-05-08T03:18:35;100588.38;;;16.68;33.50
63395;BME280;49531;-34.520;150.798;2023-05-08T03:21:06;100601.28;;;16.66;33.46
63395;BME280;49531;-34.520;150.798;2023-05-08T03:23:36;100589.66;;;16.65;33.63
63395;BME280;49531;-34.520;150.798;2023-05-08T03:26:05;100613.13;;;16.65;33.72
63395;BME280;49531;-34.520;150.798;2023-05-08T03:28:35;100585.53;;;16.63;33.83
63395;BME280;49531;-34.520;150.798;2023-05-08T03:31:04;100616.63;;;16.65;33.33
63395;BME280;49531;-34.520;150.798;2023-05-08T03:33:32;100595.16;;;16.59;33.11
63395;BME280;49531;-34.520;150.798;2023-05-08T03:36:00;100606.28;;;16.62;33.08
63395;BME280;49531;-34.520;150.798;2023-05-08T03:38:28;100615.00;;;16.64;33.39
63395;BME280;49531;-34.520;150.798;2023-05-08T03:40:55;100609.22;;;16.61;33.06
63395;BME280;49531;-34.520;150.798;2023-05-08T03:43:23;100602.19;;;16.60;33.28
63395;BME280;49531;-34.520;150.798;2023-05-08T03:45:52;100603.25;;;16.59;33.43
63395;BME280;49531;-34.520;150.798;2023-05-08T03:48:19;100611.25;;;16.65;32.78
63395;BME280;49531;-34.520;150.798;2023-05-08T03:50:48;100612.50;;;16.63;33.32
63395;BME280;49531;-34.520;150.798;2023-05-08T03:53:16;100615.44;;;16.61;33.36
63395;BME280;49531;-34.520;150.798;2023-05-08T03:55:43;100603.00;;;16.60;33.37
63395;BME280;49531;-34.520;150.798;2023-05-08T03:58:37;100608.41;;;16.60;33.36
63395;BME280;49531;-34.520;150.798;2023-05-08T04:04:06;100592.69;;;16.57;32.94
63395;BME280;49531;-34.520;150.798;2023-05-08T04:09:35;100609.00;;;16.62;33.10
63395;BME280;49531;-34.520;150.798;2023-05-08T04:15:13;100621.19;;;16.53;33.86
63395;BME280;49531;-34.520;150.798;2023-05-08T04:17:44;100623.75;;;16.60;33.91
63395;BME280;49531;-34.520;150.798;2023-05-08T04:20:17;100634.06;;;16.63;33.09
63395;BME280;49531;-34.520;150.798;2023-05-08T04:22:46;100623.53;;;16.61;33.51
63395;BME280;49531;-34.520;150.798;2023-05-08T04:25:16;100631.84;;;16.60;33.91
63395;BME280;49531;-34.520;150.798;2023-05-08T04:27:45;100614.63;;;16.61;33.72
63395;BME280;49531;-34.520;150.798;2023-05-08T04:30:13;100578.63;;;16.55;33.83
63395;BME280;49531;-34.520;150.798;2023-05-08T04:32:41;100626.22;;;16.61;33.76
63395;BME280;49531;-34.520;150.798;2023-05-08T04:35:09;100595.28;;;16.52;33.63
63395;BME280;49531;-34.520;150.798;2023-05-08T04:37:40;100629.16;;;16.60;33.44
63395;BME280;49531;-34.520;150.798;2023-05-08T04:40:09;100617.06;;;16.62;33.76
63395;BME280;49531;-34.520;150.798;2023-05-08T04:42:37;100616.88;;;16.64;33.80
63395;BME280;49531;-34.520;150.798;2023-05-08T04:45:08;100618.03;;;16.68;33.96
63395;BME280;49531;-34.520;150.798;2023-05-08T04:47:35;100624.03;;;16.70;33.53
63395;BME280;49531;-34.520;150.798;2023-05-08T04:50:03;100638.91;;;16.73;33.33
63395;BME280;49531;-34.520;150.798;2023-05-08T04:52:30;100634.00;;;16.70;33.15
63395;BME280;49531;-34.520;150.798;2023-05-08T04:54:57;100615.44;;;16.61;33.32
63395;BME280;49531;-34.520;150.798;2023-05-08T04:57:24;100636.56;;;16.64;33.47
63395;BME280;49531;-34.520;150.798;2023-05-08T04:59:51;100656.03;;;16.66;33.11
63395;BME280;49531;-34.520;150.798;2023-05-08T05:02:19;100653.44;;;16.72;33.12
63395;BME280;49531;-34.520;150.798;2023-05-08T05:04:46;100670.34;;;16.67;33.10
63395;BME280;49531;-34.520;150.798;2023-05-08T05:07:14;100649.34;;;16.69;33.24
63395;BME280;49531;-34.520;150.798;2023-05-08T05:09:41;100672.44;;;16.77;33.06
63395;BME280;49531;-34.520;150.798;2023-05-08T05:12:09;100639.72;;;16.61;33.30
63395;BME280;49531;-34.520;150.798;2023-05-08T05:14:36;100664.47;;;16.70;33.43
63395;BME280;49531;-34.520;150.798;2023-05-08T05:17:03;100663.31;;;16.66;33.62
63395;BME280;49531;-34.520;150.798;2023-05-08T05:19:31;100662.09;;;16.62;33.57
63395;BME280;49531;-34.520;150.798;2023-05-08T05:21:58;100677.38;;;16.68;33.63
63395;BME280;49531;-34.520;150.798;2023-05-08T05:24:25;100635.47;;;16.54;33.89
63395;BME280;49531;-34.520;150.798;2023-05-08T05:26:52;100676.19;;;16.76;33.62
63395;BME280;49531;-34.520;150.798;2023-05-08T05:29:19;100656.03;;;16.66;33.72
63395;BME280;49531;-34.520;150.798;2023-05-08T05:31:47;100658.03;;;16.71;33.78
63395;BME280;49531;-34.520;150.798;2023-05-08T05:34:14;100670.44;;;16.72;33.99
63395;BME280;49531;-34.520;150.798;2023-05-08T05:36:41;100680.53;;;16.77;34.26
63395;BME280;49531;-34.520;150.798;2023-05-08T05:39:09;100683.69;;;16.74;34.35
63395;BME280;49531;-34.520;150.798;2023-05-08T05:41:36;100665.75;;;16.67;34.43
63395;BME280;49531;-34.520;150.798;2023-05-08T05:44:04;100682.97;;;16.90;34.40
63395;BME280;49531;-34.520;150.798;2023-05-08T05:46:32;100689.63;;;16.99;34.45
63395;BME280;49531;-34.520;150.798;2023-05-08T05:48:59;100686.81;;;16.94;34.73
63395;BME280;49531;-34.520;150.798;2023-05-08T05:51:26;100675.94;;;16.89;34.74
63395;BME280;49531;-34.520;150.798;2023-05-08T05:53:53;100692.09;;;16.89;34.85
63395;BME280;49531;-34.520;150.798;2023-05-08T05:56:20;100696.34;;;16.85;35.04
63395;BME280;49531;-34.520;150.798;2023-05-08T05:58:48;100680.25;;;16.90;35.15
63395;BME280;49531;-34.520;150.798;2023-05-08T06:01:16;100691.63;;;16.92;35.04
63395;BME280;49531;-34.520;150.798;2023-05-08T06:03:43;100696.22;;;16.91;35.35
63395;BME280;49531;-34.520;150.798;2023-05-08T06:06:10;100711.34;;;17.04;35.33
63395;BME280;49531;-34.520;150.798;2023-05-08T06:08:38;100703.59;;;17.08;35.35
63395;BME280;49531;-34.520;150.798;2023-05-08T06:11:05;100716.72;;;17.16;35.62
63395;BME280;49531;-34.520;150.798;2023-05-08T06:13:33;100710.03;;;17.18;35.56
63395;BME280;49531;-34.520;150.798;2023-05-08T06:16:00;100703.66;;;17.24;35.43
63395;BME280;49531;-34.520;150.798;2023-05-08T06:18:28;100716.78;;;17.32;35.48
63395;BME280;49531;-34.520;150.798;2023-05-08T06:20:57;100707.50;;;17.28;35.60
63395;BME280;49531;-34.520;150.798;2023-05-08T06:23:24;100708.56;;;17.27;35.83
63395;BME280;49531;-34.520;150.798;2023-05-08T06:25:52;100724.41;;;17.36;35.87
63395;BME280;49531;-34.520;150.798;2023-05-08T06:28:20;100713.50;;;17.30;35.93
63395;BME280;49531;-34.520;150.798;2023-05-08T06:30:49;100728.84;;;17.42;36.05
63395;BME280;49531;-34.520;150.798;2023-05-08T06:33:16;100727.31;;;17.46;36.03
63395;BME280;49531;-34.520;150.798;2023-05-08T06:35:47;100721.22;;;17.39;36.02
63395;BME280;49531;-34.520;150.798;2023-05-08T06:38:15;100740.72;;;17.41;35.88
63395;BME280;49531;-34.520;150.798;2023-05-08T06:40:44;100732.59;;;17.41;36.10
63395;BME280;49531;-34.520;150.798;2023-05-08T06:43:12;100741.88;;;17.45;36.10
63395;BME280;49531;-34.520;150.798;2023-05-08T06:45:39;100740.09;;;17.50;36.14
63395;BME280;49531;-34.520;150.798;2023-05-08T06:48:07;100735.19;;;17.47;36.04
63395;BME280;49531;-34.520;150.798;2023-05-08T06:50:37;100745.25;;;17.52;36.22
63395;BME280;49531;-34.520;150.798;2023-05-08T06:53:04;100722.38;;;17.43;36.13
63395;BME280;49531;-34.520;150.798;2023-05-08T06:55:32;100719.69;;;17.43;36.23
63395;BME280;49531;-34.520;150.798;2023-05-08T06:57:59;100736.00;;;17.48;36.27
63395;BME280;49531;-34.520;150.798;2023-05-08T07:00:27;100718.41;;;17.33;36.38
63395;BME280;49531;-34.520;150.798;2023-05-08T07:02:54;100713.94;;;17.39;36.42
63395;BME280;49531;-34.520;150.798;2023-05-08T07:05:21;100713.13;;;17.39;36.46
63395;BME280;49531;-34.520;150.798;2023-05-08T07:07:48;100717.56;;;17.45;36.29
63395;BME280;49531;-34.520;150.798;2023-05-08T07:10:16;100717.00;;;17.43;36.41
63395;BME280;49531;-34.520;150.798;2023-05-08T07:12:46;100726.16;;;17.42;36.44
63395;BME280;49531;-34.520;150.798;2023-05-08T07:15:14;100723.44;;;17.42;36.44
63395;BME280;49531;-34.520;150.798;2023-05-08T07:17:41;100734.69;;;17.50;36.55
63395;BME280;49531;-34.520;150.798;2023-05-08T07:20:09;100750.78;;;17.45;36.56
63395;BME280;49531;-34.520;150.798;2023-05-08T07:22:36;100752.09;;;17.43;36.58
63395;BME280;49531;-34.520;150.798;2023-05-08T07:25:04;100734.03;;;17.31;36.53
63395;BME280;49531;-34.520;150.798;2023-05-08T07:27:31;100753.34;;;17.52;36.41
63395;BME280;49531;-34.520;150.798;2023-05-08T07:29:58;100749.28;;;17.38;36.67
63395;BME280;49531;-34.520;150.798;2023-05-08T07:32:29;100773.22;;;17.46;36.76
63395;BME280;49531;-34.520;150.798;2023-05-08T07:34:57;100783.44;;;17.44;36.78
63395;BME280;49531;-34.520;150.798;2023-05-08T07:37:24;100781.91;;;17.48;36.93
63395;BME280;49531;-34.520;150.798;2023-05-08T07:39:51;100757.16;;;17.27;36.75
63395;BME280;49531;-34.520;150.798;2023-05-08T07:42:18;100784.50;;;17.43;37.00
63395;BME280;49531;-34.520;150.798;2023-05-08T07:44:46;100790.94;;;17.42;37.02
63395;BME280;49531;-34.520;150.798;2023-05-08T07:47:14;100785.31;;;17.43;37.03
63395;BME280;49531;-34.520;150.798;2023-05-08T07:49:41;100786.84;;;17.39;37.08
63395;BME280;49531;-34.520;150.798;2023-05-08T07:52:08;100755.91;;;17.18;37.20
63395;BME280;49531;-34.520;150.798;2023-05-08T07:54:35;100794.13;;;17.39;37.01
63395;BME280;49531;-34.520;150.798;2023-05-08T07:57:02;100787.56;;;17.34;36.92
63395;BME280;49531;-34.520;150.798;2023-05-08T07:59:30;100799.88;;;17.42;37.10
63395;BME280;49531;-34.520;150.798;2023-05-08T08:01:57;100807.72;;;17.44;37.04
63395;BME280;49531;-34.520;150.798;2023-05-08T08:04:24;100807.84;;;17.37;37.17
63395;BME280;49531;-34.520;150.798;2023-05-08T08:06:51;100810.31;;;17.39;37.20
63395;BME280;49531;-34.520;150.798;2023-05-08T08:09:18;100812.44;;;17.37;37.26
63395;BME280;49531;-34.520;150.798;2023-05-08T08:11:46;100807.84;;;17.37;37.26
63395;BME280;49531;-34.520;150.798;2023-05-08T08:14:13;100816.19;;;17.36;37.22
63395;BME280;49531;-34.520;150.798;2023-05-08T08:16:41;100814.31;;;17.36;37.29
63395;BME280;49531;-34.520;150.798;2023-05-08T08:19:08;100817.25;;;17.34;37.33
63395;BME280;49531;-34.520;150.798;2023-05-08T08:21:40;100820.66;;;17.42;37.27
63395;BME280;49531;-34.520;150.798;2023-05-08T08:24:08;100835.69;;;17.38;37.30
63395;BME280;49531;-34.520;150.798;2023-05-08T08:26:35;100815.00;;;17.31;37.14
63395;BME280;49531;-34.520;150.798;2023-05-08T08:29:03;100829.94;;;17.34;37.31
63395;BME280;49531;-34.520;150.798;2023-05-08T08:31:30;100834.63;;;17.27;37.44
63395;BME280;49531;-34.520;150.798;2023-05-08T08:33:57;100843.66;;;17.32;37.37
63395;BME280;49531;-34.520;150.798;2023-05-08T08:36:25;100839.78;;;17.28;37.31
63395;BME280;49531;-34.520;150.798;2023-05-08T08:38:52;100847.28;;;17.38;37.09
63395;BME280;49531;-34.520;150.798;2023-05-08T08:41:19;100841.78;;;17.33;37.17
63395;BME280;49531;-34.520;150.798;2023-05-08T08:43:47;100830.66;;;17.18;37.25
63395;BME280;49531;-34.520;150.798;2023-05-08T08:46:15;100851.63;;;17.27;37.29
63395;BME280;49531;-34.520;150.798;2023-05-08T08:48:46;100856.56;;;17.30;37.26
63395;BME280;49531;-34.520;150.798;2023-05-08T08:51:23;100857.38;;;17.31;37.34
63395;BME280;49531;-34.520;150.798;2023-05-08T08:54:12;100869.00;;;17.31;36.99
63395;BME280;49531;-34.520;150.798;2023-05-08T08:56:40;100876.53;;;17.29;36.95
63395;BME280;49531;-34.520;150.798;2023-05-08T08:59:10;100868.78;;;17.33;37.02
63395;BME280;49531;-34.520;150.798;2023-05-08T09:01:40;100865.50;;;17.31;37.40
63395;BME280;49531;-34.520;150.798;2023-05-08T09:04:08;100857.41;;;17.19;37.12
63395;BME280;49531;-34.520;150.798;2023-05-08T09:06:36;100859.84;;;17.21;36.94
63395;BME280;49531;-34.520;150.798;2023-05-08T09:09:04;100848.81;;;17.22;37.13
63395;BME280;49531;-34.520;150.798;2023-05-08T09:11:32;100878.41;;;17.29;37.08
63395;BME280;49531;-34.520;150.798;2023-05-08T09:13:59;100865.84;;;17.23;37.15
63395;BME280;49531;-34.520;150.798;2023-05-08T09:16:27;100869.34;;;17.23;37.27
63395;BME280;49531;-34.520;150.798;2023-05-08T09:18:55;100888.59;;;17.27;37.27
63395;BME280;49531;-34.520;150.798;2023-05-08T09:21:22;100879.34;;;17.23;37.22
63395;BME280;49531;-34.520;150.798;2023-05-08T09:23:57;100884.03;;;17.27;37.05
63395;BME280;49531;-34.520;150.798;2023-05-08T09:26:33;100885.31;;;17.25;36.98
63395;BME280;49531;-34.520;150.798;2023-05-08T09:29:15;100882.25;;;17.21;37.09
63395;BME280;49531;-34.520;150.798;2023-05-08T09:31:45;100895.88;;;17.26;36.90
63395;BME280;49531;-34.520;150.798;2023-05-08T09:34:25;100895.44;;;17.18;37.10
63395;BME280;49531;-34.520;150.798;2023-05-08T09:37:12;100895.75;;;17.21;37.24
63395;BME280;49531;-34.520;150.798;2023-05-08T09:39:39;100896.34;;;17.23;36.97
63395;BME280;49531;-34.520;150.798;2023-05-08T09:42:06;100904.09;;;17.20;37.11
63395;BME280;49531;-34.520;150.798;2023-05-08T09:44:46;100902.22;;;17.20;37.20
63395;BME280;49531;-34.520;150.798;2023-05-08T09:47:19;100907.97;;;17.24;36.96
63395;BME280;49531;-34.520;150.798;2023-05-08T09:50:07;100908.19;;;17.22;37.11
63395;BME280;49531;-34.520;150.798;2023-05-08T09:52:37;100921.47;;;17.24;37.13
63395;BME280;49531;-34.520;150.798;2023-05-08T09:55:08;100922.75;;;17.21;37.17
63395;BME280;49531;-34.520;150.798;2023-05-08T09:57:37;100912.31;;;17.25;37.19
63395;BME280;49531;-34.520;150.798;2023-05-08T10:00:10;100905.19;;;17.19;37.02
63395;BME280;49531;-34.520;150.798;2023-05-08T10:02:39;100893.53;;;17.07;37.28
63395;BME280;49531;-34.520;150.798;2023-05-08T10:05:26;100922.75;;;17.21;37.29
63395;BME280;49531;-34.520;150.798;2023-05-08T10:07:55;100899.16;;;17.05;36.81
63395;BME280;49531;-34.520;150.798;2023-05-08T10:10:25;100907.25;;;17.05;37.17
63395;BME280;49531;-34.520;150.798;2023-05-08T10:12:54;100937.66;;;17.12;37.41
63395;BME280;49531;-34.520;150.798;2023-05-08T10:15:28;100930.41;;;17.13;37.03
63395;BME280;49531;-34.520;150.798;2023-05-08T10:18:03;100932.88;;;17.14;37.27
63395;BME280;49531;-34.520;150.798;2023-05-08T10:20:32;100945.31;;;17.15;37.23
63395;BME280;49531;-34.520;150.798;2023-05-08T10:23:00;100933.44;;;17.05;37.14
63395;BME280;49531;-34.520;150.798;2023-05-08T10:25:32;100927.22;;;17.04;37.35
63395;BME280;49531;-34.520;150.798;2023-05-08T10:28:12;100942.34;;;17.05;37.27
63395;BME280;49531;-34.520;150.798;2023-05-08T10:30:46;100950.44;;;17.05;37.16
63395;BME280;49531;-34.520;150.798;2023-05-08T10:33:14;100926.47;;;16.97;37.14
63395;BME280;49531;-34.520;150.798;2023-05-08T10:35:44;100939.66;;;17.05;37.11
63395;BME280;49531;-34.520;150.798;2023-05-08T10:38:12;100943.25;;;16.99;37.13
63395;BME280;49531;-34.520;150.798;2023-05-08T10:40:41;100939.50;;;17.00;37.28
63395;BME280;49531;-34.520;150.798;2023-05-08T10:43:08;100930.69;;;16.93;37.31
63395;BME280;49531;-34.520;150.798;2023-05-08T10:45:38;100938.22;;;17.03;37.28
63395;BME280;49531;-34.520;150.798;2023-05-08T10:48:27;100937.88;;;16.99;37.32
63395;BME280;49531;-34.520;150.798;2023-05-08T10:51:07;100935.28;;;16.92;37.28
63395;BME280;49531;-34.520;150.798;2023-05-08T10:53:48;100945.97;;;16.99;37.47
63395;BME280;49531;-34.520;150.798;2023-05-08T10:56:16;100931.16;;;16.90;37.45
63395;BME280;49531;-34.520;150.798;2023-05-08T10:58:43;100916.34;;;16.81;37.28
63395;BME280;49531;-34.520;150.798;2023-05-08T11:01:11;100942.31;;;16.93;37.43
63395;BME280;49531;-34.520;150.798;2023-05-08T11:03:41;100934.78;;;16.84;37.72
63395;BME280;49531;-34.520;150.798;2023-05-08T11:06:09;100934.44;;;16.92;37.36
63395;BME280;49531;-34.520;150.798;2023-05-08T11:08:47;100922.09;;;16.84;37.45
63395;BME280;49531;-34.520;150.798;2023-05-08T11:11:24;100938.19;;;16.91;37.35
63395;BME280;49531;-34.520;150.798;2023-05-08T11:17:01;100933.72;;;16.85;37.53
63395;BME280;49531;-34.520;150.798;2023-05-08T11:19:28;100924.34;;;16.76;37.70
63395;BME280;49531;-34.520;150.798;2023-05-08T11:22:13;100933.72;;;16.85;37.49
63395;BME280;49531;-34.520;150.798;2023-05-08T11:24:51;100934.53;;;16.85;37.50
63395;BME280;49531;-34.520;150.798;2023-05-08T11:27:32;100927.63;;;16.78;37.55
63395;BME280;49531;-34.520;150.798;2023-05-08T11:30:22;100939.47;;;16.77;37.49
63395;BME280;49531;-34.520;150.798;2023-05-08T11:32:57;100927.03;;;16.76;37.63
63395;BME280;49531;-34.520;150.798;2023-05-08T11:35:47;100938.66;;;16.76;37.66
63395;BME280;49531;-34.520;150.798;2023-05-08T11:38:18;100929.81;;;16.69;37.91
63395;BME280;49531;-34.520;150.798;2023-05-08T11:40:55;100929.28;;;16.79;37.59
63395;BME280;49531;-34.520;150.798;2023-05-08T11:43:30;100930.19;;;16.73;37.61
63395;BME280;49531;-34.520;150.798;2023-05-08T11:46:01;100935.59;;;16.73;37.57
63395;BME280;49531;-34.520;150.798;2023-05-08T11:48:30;100938.88;;;16.75;37.60
63395;BME280;49531;-34.520;150.798;2023-05-08T11:51:00;100935.00;;;16.71;37.82
63395;BME280;49531;-34.520;150.798;2023-05-08T11:53:27;100940.84;;;16.67;37.65
63395;BME280;49531;-34.520;150.798;2023-05-08T11:55:57;100944.34;;;16.68;37.68
63395;BME280;49531;-34.520;150.798;2023-05-08T11:58:25;100929.47;;;16.65;37.76
63395;BME280;49531;-34.520;150.798;2023-05-08T12:00:52;100931.34;;;16.65;37.72
63395;BME280;49531;-34.520;150.798;2023-05-08T12:03:23;100942.53;;;16.62;37.80
63395;BME280;49531;-34.520;150.798;2023-05-08T12:05:53;100941.28;;;16.64;37.65
63395;BME280;49531;-34.520;150.798;2023-05-08T12:08:21;100930.56;;;16.58;37.75
63395;BME280;49531;-34.520;150.798;2023-05-08T12:10:50;100951.03;;;16.65;37.85
63395;BME280;49531;-34.520;150.798;2023-05-08T12:13:20;100941.88;;;16.66;38.06
63395;BME280;49531;-34.520;150.798;2023-05-08T12:15:49;100941.50;;;16.63;37.77
63395;BME280;49531;-34.520;150.798;2023-05-08T12:18:19;100930.44;;;16.53;37.90
63395;BME280;49531;-34.520;150.798;2023-05-08T12:20:52;100933.84;;;16.60;37.99
63395;BME280;49531;-34.520;150.798;2023-05-08T12:23:19;100937.78;;;16.64;37.87
63395;BME280;49531;-34.520;150.798;2023-05-08T12:25:47;100925.75;;;16.60;38.01
63395;BME280;49531;-34.520;150.798;2023-05-08T12:28:18;100932.28;;;16.52;37.93
63395;BME280;49531;-34.520;150.798;2023-05-08T12:30:46;100932.75;;;16.49;37.85
63395;BME280;49531;-34.520;150.798;2023-05-08T12:33:14;100922.16;;;16.36;38.03
63395;BME280;49531;-34.520;150.798;2023-05-08T12:35:41;100926.16;;;16.45;38.00
63395;BME280;49531;-34.520;150.798;2023-05-08T12:38:09;100925.56;;;16.43;38.09
63395;BME280;49531;-34.520;150.798;2023-05-08T12:40:42;100935.91;;;16.46;38.01
63395;BME280;49531;-34.520;150.798;2023-05-08T12:43:10;100927.59;;;16.48;37.96
63395;BME280;49531;-34.520;150.798;2023-05-08T12:45:39;100919.59;;;16.41;38.09
63395;BME280;49531;-34.520;150.798;2023-05-08T12:48:11;100909.75;;;16.47;38.00
63395;BME280;49531;-34.520;150.798;2023-05-08T12:50:40;100914.09;;;16.48;38.21
63395;BME280;49531;-34.520;150.798;2023-05-08T12:53:10;100904.00;;;16.43;38.16
63395;BME280;49531;-34.520;150.798;2023-05-08T12:55:40;100907.41;;;16.39;38.18
63395;BME280;49531;-34.520;150.798;2023-05-08T12:58:10;100906.34;;;16.40;38.22
63395;BME280;49531;-34.520;150.798;2023-05-08T13:00:43;100915.25;;;16.40;38.31
63395;BME280;49531;-34.520;150.798;2023-05-08T13:03:12;100911.16;;;16.38;38.32